Lonoke, Arkansas
Current Conditions -  °F | °C
As of 4:26 AM on Monday 22 Dec 2014 (Local Time) from KLRF Reporting Station
Overcast Overcast  
Wind Chill: 44°   Ceiling: 600
Heat Index: 46°   Visibility: 10mi
Dew Point: 43°   Wind: 6mph
Humidity: 87%   Direction: NA
Pressure: 29.77"   Gusts: NA
Location:  34.78°N, 91.9°W
Report Text: KLRF 221026Z AUTO VRB05KT 10SM OVC006 08/06 A2977 RMK AO2 PRESFR
Loading
Personal Weather Stations






























Interactive Weather Map New forecast layout! Learn more

10-Day Weather Forecast

Advertisements
Track Severe Weather on mobile